createdAt,value
2023-02-11T00:01:56.521Z,103155.41
2023-02-11T00:04:23.193Z,103152.75
2023-02-11T00:06:56.615Z,103156.22
2023-02-11T00:09:31.796Z,103146.56
2023-02-11T00:15:16.507Z,103147.53
2023-02-11T00:17:49.934Z,103123.97
2023-02-11T00:20:52.065Z,103155.22
2023-02-11T00:23:19.348Z,103156.06
2023-02-11T00:28:28.550Z,103132.56
2023-02-11T00:31:39.759Z,103116.81
2023-02-11T00:34:06.561Z,103158.66
2023-02-11T00:36:50.494Z,103142.03
2023-02-11T00:39:20.284Z,103155.09
2023-02-11T00:42:05.258Z,103142.91
2023-02-11T00:44:38.756Z,103177.00
2023-02-11T00:47:11.546Z,103181.38
2023-02-11T00:49:56.322Z,103185.88
2023-02-11T00:52:46.506Z,103163.13
2023-02-11T00:55:30.038Z,103177.81
2023-02-11T00:58:13.290Z,103140.34
2023-02-11T01:00:40.414Z,103124.38
2023-02-11T01:06:11.421Z,103097.94
2023-02-11T01:08:45.602Z,103131.03
2023-02-11T01:11:15.719Z,103131.81
2023-02-11T01:13:49.547Z,103132.78
2023-02-11T01:16:20.205Z,103138.88
2023-02-11T01:18:54.577Z,103151.22
2023-02-11T01:21:27.598Z,103129.47
2023-02-11T01:24:00.575Z,103146.88
2023-02-11T01:26:27.337Z,103128.66
2023-02-11T01:29:02.000Z,103140.78
2023-02-11T01:31:38.684Z,103149.56
2023-02-11T01:34:14.553Z,103155.69
2023-02-11T01:36:41.967Z,103144.25
2023-02-11T01:39:15.523Z,103133.75
2023-02-11T01:42:23.990Z,103122.41
2023-02-11T01:45:04.515Z,103143.28
2023-02-11T01:47:31.178Z,103147.69
2023-02-11T01:50:11.575Z,103147.69
2023-02-11T01:52:51.892Z,103123.16
2023-02-11T01:55:46.693Z,103115.91
2023-02-11T01:58:20.590Z,103110.56
2023-02-11T02:00:56.885Z,103112.41
2023-02-11T02:03:42.010Z,103098.59
2023-02-11T02:06:43.590Z,103102.88
2023-02-11T02:09:18.638Z,103106.41
2023-02-11T02:11:55.570Z,103107.28
2023-02-11T02:14:22.414Z,103116.84
2023-02-11T02:20:27.511Z,103108.84
2023-02-11T02:23:10.486Z,103107.09
2023-02-11T02:26:16.504Z,103091.22
2023-02-11T02:29:35.585Z,103106.19
2023-02-11T02:32:52.564Z,103104.38
2023-02-11T02:35:43.561Z,103107.03
2023-02-11T02:38:26.654Z,103093.84
2023-02-11T02:41:34.174Z,103093.94
2023-02-11T02:44:21.610Z,103096.50
2023-02-11T02:46:56.857Z,103096.44
2023-02-11T02:50:05.102Z,103088.44
2023-02-11T02:53:14.670Z,103082.31
2023-02-11T02:56:22.202Z,103084.03
2023-02-11T02:59:33.679Z,103082.31
2023-02-11T03:03:10.523Z,103083.25
2023-02-11T03:05:56.937Z,103084.13
2023-02-11T03:08:33.604Z,103085.06
2023-02-11T03:11:09.558Z,103080.66
2023-02-11T03:13:45.536Z,103064.81
2023-02-11T03:16:38.176Z,103065.69
2023-02-11T03:19:51.528Z,103056.00
2023-02-11T03:22:33.915Z,103057.78
2023-02-11T03:25:11.567Z,103064.81
2023-02-11T03:27:53.187Z,103078.00
2023-02-11T03:30:39.574Z,103076.28
2023-02-11T03:33:18.341Z,103079.81
2023-02-11T03:36:06.594Z,103074.63
2023-02-11T03:38:46.073Z,103065.00
2023-02-11T03:44:30.586Z,103086.88
2023-02-11T03:47:18.530Z,103097.53
2023-02-11T03:49:56.922Z,103093.13
2023-02-11T03:52:41.625Z,103088.78
2023-02-11T03:55:21.361Z,103079.25
2023-02-11T03:57:58.654Z,103079.25
2023-02-11T04:00:41.214Z,103095.75
2023-02-11T04:03:18.046Z,103101.16
2023-02-11T04:05:48.565Z,103102.88
2023-02-11T04:08:30.362Z,103106.44
2023-02-11T04:10:57.112Z,103111.81
2023-02-11T04:13:30.603Z,103109.13
2023-02-11T04:15:57.225Z,103101.19
2023-02-11T04:18:30.681Z,103093.34
2023-02-11T04:20:57.338Z,103082.00
2023-02-11T04:23:24.222Z,103100.41
2023-02-11T04:25:57.571Z,103096.88
2023-02-11T04:31:24.456Z,103088.28
2023-02-11T04:33:51.322Z,103099.66
2023-02-11T04:36:35.057Z,103077.84
2023-02-11T04:39:01.924Z,103090.16
2023-02-11T04:41:34.617Z,103104.97
2023-02-11T04:44:21.606Z,103105.88
2023-02-11T04:47:04.655Z,103108.66
2023-02-11T04:49:51.669Z,103103.38
2023-02-11T04:52:24.597Z,103106.03
2023-02-11T04:54:51.436Z,103107.84
2023-02-11T04:57:30.743Z,103098.06
2023-02-11T04:59:57.433Z,103093.72
2023-02-11T05:02:30.612Z,103104.31
2023-02-11T05:05:02.278Z,103105.19
2023-02-11T05:07:29.202Z,103084.34
2023-02-11T05:10:04.753Z,103097.25
2023-02-11T05:12:31.503Z,103102.56
2023-02-11T05:15:04.689Z,103099.22
2023-02-11T05:17:31.427Z,103107.00
2023-02-11T05:20:04.646Z,103102.66
2023-02-11T05:22:31.253Z,103113.16
2023-02-11T05:25:12.165Z,103102.56
2023-02-11T05:27:44.545Z,103103.47
2023-02-11T05:30:20.087Z,103094.88
2023-02-11T05:32:46.902Z,103104.53
2023-02-11T05:35:26.426Z,103111.56
2023-02-11T05:37:53.060Z,103111.41
2023-02-11T05:40:29.551Z,103104.34
2023-02-11T05:42:56.247Z,103101.75
2023-02-11T05:45:41.588Z,103081.75
2023-02-11T05:48:14.756Z,103094.75
2023-02-11T05:50:43.999Z,103100.84
2023-02-11T05:53:20.632Z,103085.03
2023-02-11T05:55:56.187Z,103092.06
2023-02-11T05:58:29.722Z,103093.81
2023-02-11T06:01:03.552Z,103096.47
2023-02-11T06:03:42.476Z,103094.75
2023-02-11T06:06:23.225Z,103107.84
2023-02-11T06:08:58.558Z,103093.97
2023-02-11T06:11:27.809Z,103079.88
2023-02-11T06:14:00.616Z,103093.88
2023-02-11T06:16:30.244Z,103079.88
2023-02-11T06:19:03.623Z,103096.38
2023-02-11T06:24:59.756Z,103094.63
2023-02-11T06:27:29.712Z,103099.88
2023-02-11T06:30:03.647Z,103100.84
2023-02-11T06:32:43.459Z,103118.34
2023-02-11T06:35:30.112Z,103112.13
2023-02-11T06:37:56.924Z,103111.22
2023-02-11T06:40:33.020Z,103096.47
2023-02-11T06:43:09.356Z,103079.94
2023-02-11T06:45:50.095Z,103112.09
2023-02-11T06:48:16.969Z,103081.50
2023-02-11T06:50:49.689Z,103105.00
2023-02-11T06:53:25.691Z,103106.72
2023-02-11T06:55:52.787Z,103097.94
2023-02-11T06:58:26.073Z,103109.31
2023-02-11T07:00:57.815Z,103101.38
2023-02-11T07:03:31.798Z,103098.72
2023-02-11T07:06:02.956Z,103098.69
2023-02-11T07:14:24.005Z,103078.59
2023-02-11T07:16:50.587Z,103084.56
2023-02-11T07:19:23.716Z,103099.41
2023-02-11T07:22:16.482Z,103097.56
2023-02-11T07:24:53.681Z,103109.03
2023-02-11T07:27:30.870Z,103102.88
2023-02-11T07:30:07.256Z,103076.63
2023-02-11T07:32:34.146Z,103088.84
2023-02-11T07:35:10.336Z,103099.19
2023-02-11T07:37:37.215Z,103119.41
2023-02-11T07:40:17.706Z,103123.88
2023-02-11T07:42:44.394Z,103125.50
2023-02-11T07:45:33.751Z,103127.16
2023-02-11T07:48:13.661Z,103120.03
2023-02-11T07:50:40.341Z,103109.50
2023-02-11T07:53:13.802Z,103115.47
2023-02-11T07:55:40.580Z,103126.91
2023-02-11T07:58:16.679Z,103117.22
2023-02-11T08:00:43.499Z,103122.69
2023-02-11T08:03:30.086Z,103128.00
2023-02-11T08:06:16.597Z,103126.81
2023-02-11T08:08:49.747Z,103133.94
2023-02-11T08:14:06.697Z,103144.53
2023-02-11T08:19:30.566Z,103147.09
2023-02-11T08:21:57.590Z,103146.28
2023-02-11T08:24:30.685Z,103145.41
2023-02-11T08:26:57.351Z,103146.28
2023-02-11T08:29:36.764Z,103151.59
2023-02-11T08:32:09.294Z,103142.75
2023-02-11T08:34:44.664Z,103143.78
2023-02-11T08:37:22.967Z,103148.94
2023-02-11T08:39:58.722Z,103152.38
2023-02-11T08:42:34.231Z,103150.75
2023-02-11T08:45:18.859Z,103150.81
2023-02-11T08:48:19.487Z,103144.72
2023-02-11T08:50:59.719Z,103166.41
2023-02-11T08:53:29.337Z,103171.66
2023-02-11T08:55:56.073Z,103178.63
2023-02-11T08:58:29.791Z,103150.66
2023-02-11T09:00:59.624Z,103151.50
2023-02-11T09:03:43.868Z,103174.06
2023-02-11T09:06:12.330Z,103160.19
2023-02-11T09:08:48.785Z,103188.00
2023-02-11T09:11:48.342Z,103158.13
2023-02-11T09:14:27.742Z,103185.13
2023-02-11T09:16:57.867Z,103170.28
2023-02-11T09:19:31.743Z,103159.66
2023-02-11T09:21:59.161Z,103176.19
2023-02-11T09:24:32.724Z,103189.97
2023-02-11T09:26:59.642Z,103192.72
2023-02-11T09:29:33.790Z,103188.31
2023-02-11T09:32:30.790Z,103207.25
2023-02-11T09:35:03.934Z,103201.94
2023-02-11T09:37:35.127Z,103209.13
2023-02-11T09:43:27.548Z,103237.78
2023-02-11T09:46:07.844Z,103239.56
2023-02-11T09:48:51.112Z,103242.16
2023-02-11T09:51:40.836Z,103249.97
2023-02-11T09:54:27.846Z,103232.44
2023-02-11T09:57:00.798Z,103232.34
2023-02-11T09:59:36.013Z,103255.84
2023-02-11T10:02:27.588Z,103239.97
2023-02-11T10:04:57.454Z,103252.91
2023-02-11T10:07:57.834Z,103255.41
2023-02-11T10:10:51.113Z,103252.81
2023-02-11T10:13:49.748Z,103265.88
2023-02-11T10:17:03.801Z,103270.19
2023-02-11T10:19:49.764Z,103275.38
2023-02-11T10:22:31.780Z,103280.53
2023-02-11T10:27:51.937Z,103280.38
2023-02-11T10:31:10.397Z,103264.44
2023-02-11T10:34:10.792Z,103278.34
2023-02-11T10:36:45.183Z,103253.94
2023-02-11T10:39:24.751Z,103289.63
2023-02-11T10:42:24.060Z,103270.47
2023-02-11T10:45:14.760Z,103293.78
2023-02-11T10:47:55.812Z,103286.75
2023-02-11T10:50:31.290Z,103273.63
2023-02-11T10:53:42.842Z,103286.44
2023-02-11T10:56:14.097Z,103256.81
2023-02-11T10:59:30.877Z,103274.97
2023-02-11T11:02:01.550Z,103285.19
2023-02-11T11:04:38.866Z,103291.22
2023-02-11T11:07:18.152Z,103280.53
2023-02-11T11:09:55.875Z,103287.41
2023-02-11T11:12:45.327Z,103285.41
2023-02-11T11:15:29.039Z,103285.13
2023-02-11T11:18:23.366Z,103284.22
2023-02-11T11:21:14.808Z,103292.22
2023-02-11T11:23:48.765Z,103301.06
2023-02-11T11:26:27.085Z,103296.66
2023-02-11T11:29:16.676Z,103285.28
2023-02-11T11:32:06.025Z,103291.56
2023-02-11T11:34:38.362Z,103283.47
2023-02-11T11:40:25.480Z,103294.56
2023-02-11T11:43:25.832Z,103261.31
2023-02-11T11:46:00.545Z,103296.91
2023-02-11T11:48:41.920Z,103299.34
2023-02-11T11:51:36.084Z,103279.06
2023-02-11T11:54:06.813Z,103254.56
2023-02-11T11:57:29.247Z,103288.47
2023-02-11T12:00:06.773Z,103282.44
2023-02-11T12:03:19.883Z,103282.00
2023-02-11T12:06:12.163Z,103284.56
2023-02-11T12:09:30.823Z,103285.22
2023-02-11T12:12:54.516Z,103288.53
2023-02-11T12:15:38.832Z,103282.88
2023-02-11T12:18:26.130Z,103279.78
2023-02-11T12:21:09.902Z,103270.59
2023-02-11T12:24:20.227Z,103278.94
2023-02-11T12:27:14.052Z,103279.41
2023-02-11T12:30:08.934Z,103274.44
2023-02-11T12:33:02.846Z,103280.16
2023-02-11T12:36:08.862Z,103286.28
2023-02-11T12:39:19.844Z,103276.09
2023-02-11T12:42:30.814Z,103274.97
2023-02-11T12:45:29.267Z,103269.53
2023-02-11T12:48:39.941Z,103279.25
2023-02-11T12:51:31.823Z,103267.97
2023-02-11T12:54:46.363Z,103274.91
2023-02-11T12:57:32.784Z,103271.50
2023-02-11T13:00:25.068Z,103278.81
2023-02-11T13:03:43.155Z,103284.31
2023-02-11T13:06:15.729Z,103292.31
2023-02-11T13:09:02.851Z,103295.03
2023-02-11T13:11:52.092Z,103286.06
2023-02-11T13:14:35.853Z,103275.97
2023-02-11T13:17:12.046Z,103269.41
2023-02-11T13:19:56.953Z,103271.91
2023-02-11T13:22:48.479Z,103262.06
2023-02-11T13:26:13.194Z,103265.75
2023-02-11T13:28:54.398Z,103253.66
2023-02-11T13:31:28.080Z,103271.75
2023-02-11T13:33:54.950Z,103271.50
2023-02-11T13:36:32.994Z,103270.38
2023-02-11T13:39:06.466Z,103275.66
2023-02-11T13:41:43.742Z,103247.84
2023-02-11T13:44:10.327Z,103280.03
2023-02-11T13:47:08.894Z,103271.16
2023-02-11T13:49:53.030Z,103244.03
2023-02-11T13:52:37.890Z,103275.50
2023-02-11T13:55:16.414Z,103277.47
2023-02-11T13:57:52.345Z,103271.91
2023-02-11T14:00:34.213Z,103272.72
2023-02-11T14:03:45.074Z,103273.81
2023-02-11T14:06:54.284Z,103275.41
2023-02-11T14:09:29.990Z,103278.50
2023-02-11T14:12:32.030Z,103278.19
2023-02-11T14:15:20.812Z,103280.25
2023-02-11T14:17:47.748Z,103270.78
2023-02-11T14:20:50.255Z,103263.19
2023-02-11T14:23:30.984Z,103273.47
2023-02-11T14:26:31.928Z,103288.53
2023-02-11T14:29:17.127Z,103294.41
2023-02-11T14:31:58.185Z,103291.53
2023-02-11T14:34:53.904Z,103296.25
2023-02-11T14:38:17.913Z,103301.91
2023-02-11T14:41:25.923Z,103299.88
2023-02-11T14:43:57.940Z,103305.56
2023-02-11T14:46:57.007Z,103301.50
2023-02-11T14:49:42.733Z,103308.88
2023-02-11T14:52:40.366Z,103298.34
2023-02-11T14:55:33.352Z,103283.81
2023-02-11T14:58:18.918Z,103302.13
2023-02-11T15:00:50.516Z,103292.69
2023-02-11T15:03:36.925Z,103290.78
2023-02-11T15:06:08.215Z,103295.16
2023-02-11T15:08:44.921Z,103272.34
2023-02-11T15:11:14.520Z,103292.41
2023-02-11T15:13:55.568Z,103294.31
2023-02-11T15:16:28.700Z,103284.56
2023-02-11T15:19:07.825Z,103303.00
2023-02-11T15:21:36.379Z,103297.66
2023-02-11T15:24:30.976Z,103299.47
2023-02-11T15:27:04.957Z,103302.25
2023-02-11T15:29:46.966Z,103305.06
2023-02-11T15:32:29.976Z,103300.81
2023-02-11T15:35:05.065Z,103299.06
2023-02-11T15:37:31.934Z,103302.66
2023-02-11T15:40:22.858Z,103304.47
2023-02-11T15:43:00.409Z,103301.03
2023-02-11T15:45:54.989Z,103306.50
2023-02-11T15:48:37.885Z,103319.88
2023-02-11T15:51:36.963Z,103316.53
2023-02-11T15:54:23.935Z,103319.28
2023-02-11T15:56:58.976Z,103317.91
2023-02-11T15:59:41.962Z,103319.75
2023-02-11T16:02:17.062Z,103309.38
2023-02-11T16:04:59.941Z,103311.63
2023-02-11T16:07:56.956Z,103323.97
2023-02-11T16:10:35.569Z,103332.19
2023-02-11T16:13:24.949Z,103329.63
2023-02-11T16:16:17.191Z,103336.00
2023-02-11T16:19:25.690Z,103342.31
2023-02-11T16:22:01.920Z,103331.81
2023-02-11T16:24:40.094Z,103330.22
2023-02-11T16:27:29.930Z,103346.19
2023-02-11T16:30:03.865Z,103350.75
2023-02-11T16:32:31.223Z,103353.44
2023-02-11T16:35:06.961Z,103349.25
2023-02-11T16:37:41.970Z,103362.53
2023-02-11T16:40:09.954Z,103364.44
2023-02-11T16:42:42.933Z,103372.38
2023-02-11T16:45:32.985Z,103370.75
2023-02-11T16:48:15.046Z,103379.66
2023-02-11T16:50:46.460Z,103384.19
2023-02-11T16:53:23.960Z,103389.75
2023-02-11T16:56:06.083Z,103403.00
2023-02-11T16:58:40.958Z,103405.72
2023-02-11T17:01:07.875Z,103395.25
2023-02-11T17:03:47.973Z,103400.63
2023-02-11T17:06:18.034Z,103389.38
2023-02-11T17:08:50.967Z,103407.78
2023-02-11T17:11:23.645Z,103402.53
2023-02-11T17:13:56.972Z,103393.19
2023-02-11T17:16:32.012Z,103417.59
2023-02-11T17:18:58.876Z,103417.66
2023-02-11T17:21:44.052Z,103410.69
2023-02-11T17:24:11.478Z,103416.06
2023-02-11T17:26:56.891Z,103394.31
2023-02-11T17:29:28.278Z,103378.59
2023-02-11T17:32:20.345Z,103387.31
2023-02-11T17:34:47.086Z,103424.25
2023-02-11T17:37:20.034Z,103412.97
2023-02-11T17:39:46.672Z,103426.09
2023-02-11T17:42:21.000Z,103424.34
2023-02-11T17:44:47.729Z,103430.59
2023-02-11T17:47:27.979Z,103404.22
2023-02-11T17:49:54.627Z,103418.31
2023-02-11T17:52:28.021Z,103429.88
2023-02-11T17:55:02.034Z,103433.44
2023-02-11T17:57:28.741Z,103420.34
2023-02-11T18:00:02.462Z,103434.44
2023-02-11T18:02:29.140Z,103433.66
2023-02-11T18:05:04.022Z,103442.50
2023-02-11T18:07:30.777Z,103426.63
2023-02-11T18:10:03.932Z,103429.44
2023-02-11T18:12:33.110Z,103426.00
2023-02-11T18:15:06.026Z,103438.34
2023-02-11T18:17:35.082Z,103435.84
2023-02-11T18:20:14.405Z,103422.00
2023-02-11T18:22:41.648Z,103430.84
2023-02-11T18:25:20.295Z,103427.31
2023-02-11T18:27:48.929Z,103440.50
2023-02-11T18:30:25.194Z,103423.84
2023-02-11T18:32:56.357Z,103450.25
2023-02-11T18:35:30.278Z,103459.13
2023-02-11T18:37:57.062Z,103436.41
2023-02-11T18:40:23.812Z,103434.81
2023-02-11T18:42:57.225Z,103452.25
2023-02-11T18:45:31.531Z,103452.25
2023-02-11T18:48:13.938Z,103469.84
2023-02-11T18:50:53.946Z,103458.34
2023-02-11T18:53:27.968Z,103454.25
2023-02-11T18:55:55.171Z,103467.28
2023-02-11T18:58:29.045Z,103481.53
2023-02-11T19:01:02.234Z,103484.19
2023-02-11T19:03:45.063Z,103501.75
2023-02-11T19:06:17.564Z,103499.13
2023-02-11T19:08:54.206Z,103480.88
2023-02-11T19:11:41.805Z,103473.00
2023-02-11T19:14:17.126Z,103493.91
2023-02-11T19:16:47.732Z,103488.69
2023-02-11T19:19:35.066Z,103503.59
2023-02-11T19:22:21.239Z,103506.31
2023-02-11T19:25:00.169Z,103482.78
2023-02-11T19:27:35.778Z,103495.09
2023-02-11T19:30:02.877Z,103487.22
2023-02-11T19:32:37.031Z,103520.34
2023-02-11T19:35:05.506Z,103535.47
2023-02-11T19:37:39.038Z,103538.13
2023-02-11T19:40:06.611Z,103533.91
2023-02-11T19:42:40.048Z,103538.19
2023-02-11T19:45:27.192Z,103525.22
2023-02-11T19:48:04.112Z,103541.00
2023-02-11T19:50:37.606Z,103560.34
2023-02-11T19:53:11.105Z,103546.44
2023-02-11T19:55:37.775Z,103562.13
2023-02-11T19:58:11.178Z,103557.78
2023-02-11T20:00:40.565Z,103534.34
2023-02-11T20:03:14.034Z,103551.72
2023-02-11T20:05:56.234Z,103551.78
2023-02-11T20:08:22.969Z,103567.56
2023-02-11T20:10:59.031Z,103544.94
2023-02-11T20:13:25.742Z,103567.66
2023-02-11T20:15:59.035Z,103563.28
2023-02-11T20:18:32.089Z,103570.31
2023-02-11T20:21:08.061Z,103572.94
2023-02-11T20:23:35.548Z,103562.47
2023-02-11T20:26:32.511Z,103556.41
2023-02-11T20:29:09.044Z,103564.50
2023-02-11T20:31:53.155Z,103567.16
2023-02-11T20:34:21.405Z,103571.59
2023-02-11T20:37:04.109Z,103567.22
2023-02-11T20:39:31.077Z,103584.72
2023-02-11T20:42:04.993Z,103568.16
2023-02-11T20:44:32.029Z,103590.03
2023-02-11T20:47:12.094Z,103588.31
2023-02-11T20:49:38.766Z,103588.31
2023-02-11T20:52:20.926Z,103587.44
2023-02-11T20:57:31.133Z,103571.78
2023-02-11T21:00:04.071Z,103587.63
2023-02-11T21:02:30.691Z,103592.81
2023-02-11T21:05:07.639Z,103599.94
2023-02-11T21:07:39.100Z,103586.03
2023-02-11T21:10:13.496Z,103565.00
2023-02-11T21:12:42.353Z,103571.13
2023-02-11T21:15:16.208Z,103592.94
2023-02-11T21:17:45.391Z,103592.16
2023-02-11T21:20:19.133Z,103575.66
2023-02-11T21:22:45.791Z,103599.25
2023-02-11T21:25:12.508Z,103573.06
2023-02-11T21:27:49.427Z,103597.47
2023-02-11T21:30:19.510Z,103560.91
2023-02-11T21:32:56.204Z,103597.56
2023-02-11T21:35:29.187Z,103591.50
2023-02-11T21:38:03.081Z,103598.50
2023-02-11T21:40:33.267Z,103607.41
2023-02-11T21:43:06.126Z,103591.50
2023-02-11T21:45:49.100Z,103597.69
2023-02-11T21:48:30.126Z,103598.53
2023-02-11T21:50:56.728Z,103594.19
2023-02-11T21:53:32.764Z,103607.41
2023-02-11T21:56:07.720Z,103606.56
2023-02-11T21:58:51.708Z,103607.47
2023-02-11T22:01:21.830Z,103615.44
2023-02-11T22:04:20.387Z,103613.72
2023-02-11T22:06:47.114Z,103610.22
2023-02-11T22:09:13.824Z,103597.31
2023-02-11T22:11:58.492Z,103603.41
2023-02-11T22:14:32.499Z,103616.66
2023-02-11T22:17:08.461Z,103617.50
2023-02-11T22:19:42.152Z,103616.66
2023-02-11T22:22:18.428Z,103618.50
2023-02-11T22:24:55.116Z,103611.47
2023-02-11T22:27:29.069Z,103619.47
2023-02-11T22:29:55.791Z,103629.13
2023-02-11T22:32:34.081Z,103622.28
2023-02-11T22:35:00.687Z,103637.25
2023-02-11T22:37:37.301Z,103636.38
2023-02-11T22:40:04.855Z,103617.22
2023-02-11T22:42:34.286Z,103607.69
2023-02-11T22:45:07.204Z,103630.41
2023-02-11T22:47:54.948Z,103647.97
2023-02-11T22:50:22.607Z,103653.25
2023-02-11T22:52:56.148Z,103650.66
2023-02-11T22:55:24.100Z,103654.22
2023-02-11T22:57:54.027Z,103648.91
2023-02-11T23:00:31.244Z,103650.75
2023-02-11T23:02:58.081Z,103640.22
2023-02-11T23:05:31.424Z,103659.66
2023-02-11T23:07:58.162Z,103661.50
2023-02-11T23:10:34.211Z,103648.41
2023-02-11T23:13:00.836Z,103644.97
2023-02-11T23:15:38.181Z,103660.78
2023-02-11T23:18:05.435Z,103643.38
2023-02-11T23:20:41.086Z,103674.03
2023-02-11T23:23:08.497Z,103673.19
2023-02-11T23:25:49.097Z,103689.00
2023-02-11T23:28:18.629Z,103689.09
2023-02-11T23:30:59.141Z,103689.06
2023-02-11T23:33:32.142Z,103685.50
2023-02-11T23:36:00.632Z,103684.69
2023-02-11T23:38:37.096Z,103689.13
2023-02-11T23:41:13.690Z,103684.75
2023-02-11T23:43:47.118Z,103673.31
2023-02-11T23:46:22.540Z,103662.81
2023-02-11T23:49:03.979Z,103649.69
2023-02-11T23:51:38.115Z,103660.25
2023-02-11T23:54:11.125Z,103660.41
2023-02-11T23:56:52.616Z,103656.09
2023-02-11T23:59:28.452Z,103672.72
